createdAt,value
2022-07-29T00:00:10.237Z,1786
2022-07-29T00:01:20.377Z,1812
2022-07-29T00:02:12.781Z,1793
2022-07-29T00:03:13.324Z,1782
2022-07-29T00:04:10.270Z,1816
2022-07-29T00:05:12.056Z,1820
2022-07-29T00:06:10.229Z,1819
2022-07-29T00:07:12.951Z,1823
2022-07-29T00:08:13.183Z,1814
2022-07-29T00:09:12.540Z,1827
2022-07-29T00:10:12.911Z,1858
2022-07-29T00:11:12.280Z,1799
2022-07-29T00:12:13.146Z,1780
2022-07-29T00:13:10.257Z,1798
2022-07-29T00:14:14.252Z,1799
2022-07-29T00:15:10.246Z,1771
2022-07-29T00:16:28.350Z,1756
2022-07-29T00:17:12.977Z,1764
2022-07-29T00:18:12.260Z,1732
2022-07-29T00:19:12.666Z,1726
2022-07-29T00:20:10.219Z,1717
2022-07-29T00:21:12.798Z,1727
2022-07-29T00:22:10.217Z,1716
2022-07-29T00:23:13.565Z,1723
2022-07-29T00:24:19.459Z,1744
2022-07-29T00:25:10.200Z,1746
2022-07-29T00:26:10.205Z,1760
2022-07-29T00:27:10.220Z,1756
2022-07-29T00:28:13.280Z,1760
2022-07-29T00:30:12.301Z,1765
2022-07-29T00:31:16.178Z,1764
2022-07-29T00:32:10.176Z,1767
2022-07-29T00:33:10.197Z,1767
2022-07-29T00:34:12.963Z,1761
2022-07-29T00:35:12.271Z,1795
2022-07-29T00:36:10.154Z,1786
2022-07-29T00:37:10.233Z,1777
2022-07-29T00:38:10.173Z,1775
2022-07-29T00:39:10.165Z,1768
2022-07-29T00:40:10.250Z,1764
2022-07-29T00:41:10.166Z,1771
2022-07-29T00:42:10.204Z,1809
2022-07-29T00:43:12.299Z,1771
2022-07-29T00:45:10.983Z,1788
2022-07-29T00:46:13.142Z,1767
2022-07-29T00:47:31.222Z,1765
2022-07-29T00:48:10.168Z,1777
2022-07-29T00:49:12.356Z,1802
2022-07-29T00:50:10.239Z,1806
2022-07-29T00:51:12.912Z,1775
2022-07-29T00:52:17.042Z,1777
2022-07-29T00:53:10.214Z,1802
2022-07-29T00:54:10.154Z,1783
2022-07-29T00:55:10.263Z,1771
2022-07-29T00:56:10.245Z,1831
2022-07-29T00:57:10.165Z,1782
2022-07-29T00:58:10.156Z,1775
2022-07-29T00:59:10.188Z,1775
2022-07-29T01:00:10.173Z,1794
2022-07-29T01:01:13.366Z,1778
2022-07-29T01:02:12.737Z,1823
2022-07-29T01:03:10.158Z,1786
2022-07-29T01:04:12.648Z,1774
2022-07-29T01:05:12.332Z,1780
2022-07-29T01:06:10.165Z,1788
2022-07-29T01:07:10.137Z,1755
2022-07-29T01:08:10.156Z,1720
2022-07-29T01:09:10.182Z,1684
2022-07-29T01:10:13.654Z,1677
2022-07-29T01:11:10.131Z,1679
2022-07-29T01:12:25.318Z,1667
2022-07-29T01:13:10.227Z,1717
2022-07-29T01:14:10.157Z,1741
2022-07-29T01:15:10.189Z,1758
2022-07-29T01:16:15.619Z,1762
2022-07-29T01:17:12.890Z,1760
2022-07-29T01:18:13.186Z,1766
2022-07-29T01:19:12.522Z,1767
2022-07-29T01:20:10.192Z,1770
2022-07-29T01:21:10.180Z,1763
2022-07-29T01:22:10.135Z,1763
2022-07-29T01:23:10.159Z,1762
2022-07-29T01:24:10.180Z,1775
2022-07-29T01:25:12.513Z,1762
2022-07-29T01:26:12.898Z,1766
2022-07-29T01:27:10.172Z,1767
2022-07-29T01:28:10.191Z,1807
2022-07-29T01:29:12.366Z,1783
2022-07-29T01:30:10.966Z,1773
2022-07-29T01:31:13.430Z,1776
2022-07-29T01:32:18.044Z,1775
2022-07-29T01:33:10.164Z,1855
2022-07-29T01:34:10.187Z,1780
2022-07-29T01:35:10.130Z,1777
2022-07-29T01:36:10.195Z,1852
2022-07-29T01:37:10.130Z,1816
2022-07-29T01:38:11.359Z,1792
2022-07-29T01:39:10.131Z,1776
2022-07-29T01:40:10.093Z,1768
2022-07-29T01:41:12.435Z,1786
2022-07-29T01:42:12.355Z,1827
2022-07-29T01:43:10.152Z,1776
2022-07-29T01:44:10.159Z,1786
2022-07-29T01:45:12.937Z,1779
2022-07-29T01:46:10.182Z,1787
2022-07-29T01:47:10.160Z,1772
2022-07-29T01:48:10.141Z,1798
2022-07-29T01:49:12.304Z,1774
2022-07-29T01:50:10.096Z,1793
2022-07-29T01:51:16.184Z,1862
2022-07-29T01:52:10.143Z,1822
2022-07-29T01:53:12.300Z,1800
2022-07-29T01:54:13.082Z,1783
2022-07-29T01:55:10.099Z,1816
2022-07-29T01:56:10.071Z,1812
2022-07-29T01:57:16.209Z,1782
2022-07-29T01:58:10.081Z,1765
2022-07-29T01:59:10.069Z,1756
2022-07-29T02:00:10.136Z,1755
2022-07-29T02:01:10.153Z,1763
2022-07-29T02:02:17.640Z,1757
2022-07-29T02:03:12.836Z,1743
2022-07-29T02:04:29.456Z,1746
2022-07-29T02:05:10.199Z,1741
2022-07-29T02:06:12.296Z,1739
2022-07-29T02:07:10.086Z,1750
2022-07-29T02:08:10.156Z,1761
2022-07-29T02:09:10.645Z,1754
2022-07-29T02:10:12.641Z,1761
2022-07-29T02:12:10.049Z,1756
2022-07-29T02:13:10.845Z,1758
2022-07-29T02:15:12.511Z,1799
2022-07-29T02:16:30.615Z,1802
2022-07-29T02:17:10.079Z,1761
2022-07-29T02:18:12.480Z,1765
2022-07-29T02:19:10.048Z,1786
2022-07-29T02:20:12.162Z,1809
2022-07-29T02:21:14.996Z,1837
2022-07-29T02:23:12.674Z,1780
2022-07-29T02:24:27.619Z,1774
2022-07-29T02:25:15.455Z,1784
2022-07-29T02:26:12.372Z,1771
2022-07-29T02:27:12.787Z,1773
2022-07-29T02:29:10.103Z,1786
2022-07-29T02:30:10.141Z,1807
2022-07-29T02:31:10.232Z,1805
2022-07-29T02:32:10.154Z,1775
2022-07-29T02:33:12.142Z,1763
2022-07-29T02:34:10.053Z,1758
2022-07-29T02:35:12.777Z,1776
2022-07-29T02:36:10.090Z,1814
2022-07-29T02:37:10.048Z,1763
2022-07-29T02:38:10.116Z,1835
2022-07-29T02:39:13.064Z,1808
2022-07-29T02:40:12.437Z,1861
2022-07-29T02:41:10.045Z,1773
2022-07-29T02:42:10.026Z,1766
2022-07-29T02:43:12.374Z,1764
2022-07-29T02:44:10.085Z,1712
2022-07-29T02:45:10.044Z,1652
2022-07-29T02:46:12.785Z,1671
2022-07-29T02:47:10.110Z,1666
2022-07-29T02:48:15.073Z,1648
2022-07-29T02:49:12.436Z,1678
2022-07-29T02:50:10.041Z,1718
2022-07-29T02:51:10.045Z,1740
2022-07-29T02:52:12.182Z,1762
2022-07-29T02:53:12.536Z,1771
2022-07-29T02:54:10.089Z,1761
2022-07-29T02:55:12.144Z,1792
2022-07-29T02:56:12.763Z,1765
2022-07-29T02:57:10.040Z,1771
2022-07-29T02:58:17.347Z,1762
2022-07-29T02:59:12.791Z,1758
2022-07-29T03:00:10.068Z,1767
2022-07-29T03:01:12.469Z,1789
2022-07-29T03:02:12.319Z,1790
2022-07-29T03:03:10.045Z,1788
2022-07-29T03:04:10.048Z,1781
2022-07-29T03:05:12.293Z,1790
2022-07-29T03:06:10.040Z,1793
2022-07-29T03:07:10.004Z,1792
2022-07-29T03:08:10.014Z,1896
2022-07-29T03:09:13.207Z,1787
2022-07-29T03:10:11.091Z,1793
2022-07-29T03:11:10.019Z,1816
2022-07-29T03:12:17.148Z,1792
2022-07-29T03:13:10.036Z,1794
2022-07-29T03:14:10.022Z,1819
2022-07-29T03:15:15.089Z,1810
2022-07-29T03:16:10.056Z,1780
2022-07-29T03:17:10.032Z,1838
2022-07-29T03:18:12.995Z,1795
2022-07-29T03:19:10.009Z,1781
2022-07-29T03:20:13.638Z,1779
2022-07-29T03:21:13.027Z,1798
2022-07-29T03:22:10.030Z,1788
2022-07-29T03:23:10.041Z,1826
2022-07-29T03:24:12.754Z,1765
2022-07-29T03:25:10.056Z,1791
2022-07-29T03:26:12.241Z,1782
2022-07-29T03:28:19.195Z,1832
2022-07-29T03:29:13.441Z,1778
2022-07-29T03:30:10.005Z,1765
2022-07-29T03:31:10.082Z,1768
2022-07-29T03:32:10.725Z,1856
2022-07-29T03:33:13.573Z,1772
2022-07-29T03:34:10.065Z,1772
2022-07-29T03:35:10.047Z,1766
2022-07-29T03:36:10.012Z,1790
2022-07-29T03:37:17.585Z,1783
2022-07-29T03:38:12.246Z,1778
2022-07-29T03:39:12.498Z,1767
2022-07-29T03:40:17.261Z,1767
2022-07-29T03:41:12.754Z,1763
2022-07-29T03:42:10.023Z,1794
2022-07-29T03:43:10.008Z,1781
2022-07-29T03:44:12.448Z,1767
2022-07-29T03:45:15.005Z,1765
2022-07-29T03:46:13.047Z,1768
2022-07-29T03:47:12.219Z,1837
2022-07-29T03:48:10.010Z,1795
2022-07-29T03:49:13.101Z,1808
2022-07-29T03:50:10.746Z,1791
2022-07-29T03:51:10.035Z,1786
2022-07-29T03:52:12.989Z,1783
2022-07-29T03:53:10.007Z,1771
2022-07-29T03:54:10.434Z,1771
2022-07-29T03:55:10.729Z,1787
2022-07-29T03:56:10.029Z,1767
2022-07-29T03:57:09.968Z,1787
2022-07-29T03:59:27.490Z,1772
2022-07-29T04:00:10.038Z,1775
2022-07-29T04:01:12.041Z,1764
2022-07-29T04:03:12.227Z,1731
2022-07-29T04:04:12.743Z,1701
2022-07-29T04:05:09.981Z,1690
2022-07-29T04:06:09.995Z,1694
2022-07-29T04:07:09.964Z,1694
2022-07-29T04:08:09.964Z,1710
2022-07-29T04:09:13.642Z,1772
2022-07-29T04:10:12.529Z,1791
2022-07-29T04:11:09.987Z,1791
2022-07-29T04:12:09.986Z,1791
2022-07-29T04:13:18.174Z,1783
2022-07-29T04:14:12.877Z,1813
2022-07-29T04:15:12.502Z,1818
2022-07-29T04:16:12.351Z,1877
2022-07-29T04:17:09.952Z,1964
2022-07-29T04:18:10.008Z,2305
2022-07-29T04:19:09.954Z,2017
2022-07-29T04:20:09.953Z,2182
2022-07-29T04:21:12.295Z,2155
2022-07-29T04:22:12.224Z,2170
2022-07-29T04:23:12.957Z,2126
2022-07-29T04:24:10.082Z,2141
2022-07-29T04:25:09.988Z,2101
2022-07-29T04:26:09.963Z,2072
2022-07-29T04:27:09.943Z,2114
2022-07-29T04:28:09.986Z,2084
2022-07-29T04:29:12.724Z,2050
2022-07-29T04:30:12.033Z,2056
2022-07-29T04:31:10.082Z,2011
2022-07-29T04:32:09.960Z,2028
2022-07-29T04:33:10.008Z,1991
2022-07-29T04:34:09.971Z,1993
2022-07-29T04:35:09.962Z,1995
2022-07-29T04:36:28.502Z,2004
2022-07-29T04:37:10.000Z,1980
2022-07-29T04:38:15.895Z,1970
2022-07-29T04:39:12.087Z,1986
2022-07-29T04:40:09.949Z,1986
2022-07-29T04:41:17.490Z,2022
2022-07-29T04:42:12.252Z,2008
2022-07-29T04:43:09.925Z,2000
2022-07-29T04:44:12.118Z,1980
2022-07-29T04:45:09.978Z,1967
2022-07-29T04:46:09.992Z,1955
2022-07-29T04:48:12.977Z,1943
2022-07-29T04:49:10.076Z,1944
2022-07-29T04:50:10.063Z,1983
2022-07-29T04:52:12.083Z,1956
2022-07-29T04:52:41.372Z,1936
2022-07-29T04:53:09.955Z,1987
2022-07-29T04:54:09.899Z,1971
2022-07-29T04:55:15.425Z,1971
2022-07-29T04:56:09.958Z,1961
2022-07-29T04:57:12.089Z,1977
2022-07-29T04:58:12.301Z,1963
2022-07-29T04:59:09.986Z,1969
2022-07-29T05:00:12.066Z,2020
2022-07-29T05:01:09.994Z,1969
2022-07-29T05:02:21.480Z,1989
2022-07-29T05:03:12.900Z,1974
2022-07-29T05:04:12.079Z,1968
2022-07-29T05:05:12.459Z,2056
2022-07-29T05:06:13.747Z,2024
2022-07-29T05:07:10.012Z,2013
2022-07-29T05:08:09.939Z,2082
2022-07-29T05:10:10.007Z,2018
2022-07-29T05:11:30.527Z,2066
2022-07-29T05:13:12.549Z,2047
2022-07-29T05:14:09.930Z,2051
2022-07-29T05:16:12.937Z,2133
2022-07-29T05:17:09.919Z,2227
2022-07-29T05:18:09.988Z,2192
2022-07-29T05:19:14.664Z,2084
2022-07-29T05:21:11.668Z,2087
2022-07-29T05:22:10.001Z,2141
2022-07-29T05:23:09.935Z,2276
2022-07-29T05:24:09.942Z,2231
2022-07-29T05:25:09.898Z,2276
2022-07-29T05:26:09.938Z,2236
2022-07-29T05:27:10.643Z,2224
2022-07-29T05:28:12.001Z,2359
2022-07-29T05:29:44.566Z,2330
2022-07-29T05:30:09.944Z,2138
2022-07-29T05:31:12.228Z,2337
2022-07-29T05:32:10.016Z,2173
2022-07-29T05:33:35.912Z,2158
2022-07-29T05:34:09.998Z,2150
2022-07-29T05:35:09.882Z,2327
2022-07-29T05:36:12.380Z,2263
2022-07-29T05:37:30.635Z,2175
2022-07-29T05:38:12.894Z,2187
2022-07-29T05:39:12.224Z,2200
2022-07-29T05:40:12.812Z,2239
2022-07-29T05:41:12.568Z,2214
2022-07-29T05:42:12.837Z,2246
2022-07-29T05:43:12.101Z,2227
2022-07-29T05:44:12.658Z,2214
2022-07-29T05:45:09.867Z,2239
2022-07-29T05:46:09.999Z,2251
2022-07-29T05:47:09.910Z,2229
2022-07-29T05:48:27.270Z,2182
2022-07-29T05:49:09.969Z,2209
2022-07-29T05:50:09.981Z,2295
2022-07-29T05:51:09.960Z,2246
2022-07-29T05:52:12.536Z,2209
2022-07-29T05:53:19.670Z,2212
2022-07-29T05:54:17.558Z,2254
2022-07-29T05:55:09.899Z,2359
2022-07-29T05:56:09.862Z,2258
2022-07-29T05:57:09.962Z,2251
2022-07-29T05:58:12.421Z,2263
2022-07-29T05:59:17.984Z,2271
2022-07-29T06:00:09.911Z,2288
2022-07-29T06:01:09.902Z,2246
2022-07-29T06:02:12.791Z,2283
2022-07-29T06:03:12.714Z,2209
2022-07-29T06:04:09.892Z,2204
2022-07-29T06:05:11.798Z,2192
2022-07-29T06:06:12.706Z,2227
2022-07-29T06:07:12.887Z,2256
2022-07-29T06:08:09.843Z,2263
2022-07-29T06:09:12.458Z,2263
2022-07-29T06:10:09.973Z,2310
2022-07-29T06:11:12.008Z,2438
2022-07-29T06:12:09.922Z,2467
2022-07-29T06:13:14.921Z,2258
2022-07-29T06:14:12.603Z,2398
2022-07-29T06:16:15.751Z,2418
2022-07-29T06:17:09.962Z,2364
2022-07-29T06:18:09.817Z,2347
2022-07-29T06:19:09.871Z,2379
2022-07-29T06:20:10.785Z,2330
2022-07-29T06:21:12.060Z,2327
2022-07-29T06:22:12.935Z,2371
2022-07-29T06:24:12.231Z,2320
2022-07-29T06:25:09.839Z,2342
2022-07-29T06:26:09.824Z,2303
2022-07-29T06:27:09.915Z,2398
2022-07-29T06:28:12.691Z,2354
2022-07-29T06:29:09.827Z,2364
2022-07-29T06:30:09.887Z,2327
2022-07-29T06:31:13.028Z,2430
2022-07-29T06:32:09.799Z,2352
2022-07-29T06:33:10.513Z,2403
2022-07-29T06:34:09.834Z,2423
2022-07-29T06:35:39.412Z,2386
2022-07-29T06:36:11.912Z,2361
2022-07-29T06:37:11.200Z,2420
2022-07-29T06:38:30.406Z,2391
2022-07-29T06:39:09.855Z,2445
2022-07-29T06:40:17.403Z,2445
2022-07-29T06:41:12.222Z,2519
2022-07-29T06:42:09.840Z,2479
2022-07-29T06:43:15.054Z,2415
2022-07-29T06:44:13.092Z,2440
2022-07-29T06:45:09.877Z,2435
2022-07-29T06:46:09.931Z,2420
2022-07-29T06:47:09.890Z,2506
2022-07-29T06:48:12.766Z,2496
2022-07-29T06:49:12.111Z,2482
2022-07-29T06:50:12.411Z,2467
2022-07-29T06:51:09.825Z,2506
2022-07-29T06:52:09.881Z,2548
2022-07-29T06:53:09.924Z,2550
2022-07-29T06:54:15.646Z,2550
2022-07-29T06:55:12.920Z,2531
2022-07-29T06:56:09.829Z,2526
2022-07-29T06:57:09.848Z,2492
2022-07-29T07:00:09.836Z,2541
2022-07-29T07:01:13.026Z,2548
2022-07-29T07:03:09.852Z,2499
2022-07-29T07:04:09.998Z,2521
2022-07-29T07:05:12.788Z,2506
2022-07-29T07:06:14.635Z,2492
2022-07-29T07:07:09.856Z,2519
2022-07-29T07:08:09.843Z,2504
2022-07-29T07:09:09.777Z,2499
2022-07-29T07:10:09.791Z,2467
2022-07-29T07:11:12.306Z,2504
2022-07-29T07:12:09.809Z,2555
2022-07-29T07:13:21.150Z,2533
2022-07-29T07:14:11.983Z,2496
2022-07-29T07:15:09.750Z,2563
2022-07-29T07:16:12.755Z,2526
2022-07-29T07:17:12.021Z,2494
2022-07-29T07:18:09.757Z,2477
2022-07-29T07:19:25.379Z,2587
2022-07-29T07:20:09.873Z,2489
2022-07-29T07:21:09.823Z,2506
2022-07-29T07:22:10.508Z,2570
2022-07-29T07:23:09.766Z,2519
2022-07-29T07:24:09.789Z,2474
2022-07-29T07:25:12.761Z,2651
2022-07-29T07:26:15.081Z,2572
2022-07-29T07:27:11.999Z,2558
2022-07-29T07:28:09.756Z,2538
2022-07-29T07:29:12.760Z,2538
2022-07-29T07:30:09.738Z,2523
2022-07-29T07:31:09.774Z,2516
2022-07-29T07:32:10.549Z,2457
2022-07-29T07:33:12.062Z,2460
2022-07-29T07:34:10.422Z,2472
2022-07-29T07:35:11.766Z,2474
2022-07-29T07:36:09.826Z,2442
2022-07-29T07:37:09.797Z,2479
2022-07-29T07:38:09.767Z,2526
2022-07-29T07:39:09.805Z,2457
2022-07-29T07:40:12.039Z,2484
2022-07-29T07:41:09.762Z,2536
2022-07-29T07:42:17.201Z,2474
2022-07-29T07:44:16.002Z,2457
2022-07-29T07:45:18.312Z,2445
2022-07-29T07:46:09.867Z,2533
2022-07-29T07:47:12.538Z,2494
2022-07-29T07:48:12.818Z,2489
2022-07-29T07:49:09.820Z,2469
2022-07-29T07:50:18.456Z,2465
2022-07-29T07:51:09.760Z,2474
2022-07-29T07:52:09.747Z,2465
2022-07-29T07:53:09.856Z,2511
2022-07-29T07:54:12.787Z,2496
2022-07-29T07:55:09.727Z,2514
2022-07-29T07:56:13.141Z,2896
2022-07-29T07:57:09.734Z,2538
2022-07-29T07:58:09.714Z,2538
2022-07-29T07:59:12.344Z,2538
2022-07-29T08:00:17.359Z,2558
2022-07-29T08:01:12.767Z,2572
2022-07-29T08:03:16.773Z,2651
2022-07-29T08:04:09.714Z,2658
2022-07-29T08:05:12.705Z,2663
2022-07-29T08:06:09.765Z,2690
2022-07-29T08:07:09.776Z,2671
2022-07-29T08:08:09.764Z,2690
2022-07-29T08:09:28.233Z,2739
2022-07-29T08:10:09.785Z,2676
2022-07-29T08:11:12.163Z,2688
2022-07-29T08:13:09.821Z,2631
2022-07-29T08:14:19.813Z,2685
2022-07-29T08:15:09.759Z,2712
2022-07-29T08:17:12.085Z,2766
2022-07-29T08:18:09.824Z,2889
2022-07-29T08:19:12.228Z,2747
2022-07-29T08:20:12.587Z,2796
2022-07-29T08:21:09.736Z,2784
2022-07-29T08:23:12.375Z,2815
2022-07-29T08:24:12.799Z,2950
2022-07-29T08:25:12.608Z,2921
2022-07-29T08:26:11.946Z,2828
2022-07-29T08:27:40.807Z,2830
2022-07-29T08:28:12.297Z,2889
2022-07-29T08:29:09.734Z,2847
2022-07-29T08:30:11.981Z,2884
2022-07-29T08:31:09.715Z,2786
2022-07-29T08:32:09.740Z,2862
2022-07-29T08:33:20.148Z,2884
2022-07-29T08:34:09.765Z,2857
2022-07-29T08:35:09.699Z,2936
2022-07-29T08:36:09.692Z,2847
2022-07-29T08:37:11.927Z,2828
2022-07-29T08:38:09.769Z,2838
2022-07-29T08:40:12.940Z,2860
2022-07-29T08:41:09.689Z,2793
2022-07-29T08:42:09.657Z,2779
2022-07-29T08:43:12.283Z,2774
2022-07-29T08:44:12.041Z,2754
2022-07-29T08:45:18.422Z,2811
2022-07-29T08:46:09.812Z,2811
2022-07-29T08:47:12.827Z,2796
2022-07-29T08:48:11.693Z,2842
2022-07-29T08:49:09.771Z,2914
2022-07-29T08:50:09.669Z,2901
2022-07-29T08:51:18.295Z,2879
2022-07-29T08:52:10.344Z,2815
2022-07-29T08:53:15.022Z,2923
2022-07-29T08:54:11.888Z,2852
2022-07-29T08:55:09.762Z,2847
2022-07-29T08:56:09.639Z,2901
2022-07-29T08:57:09.685Z,2830
2022-07-29T08:58:12.611Z,2835
2022-07-29T08:59:12.548Z,2889
2022-07-29T09:00:11.675Z,2808
2022-07-29T09:01:09.957Z,2764
2022-07-29T09:02:09.751Z,2776
2022-07-29T09:03:09.664Z,2852
2022-07-29T09:04:09.733Z,2833
2022-07-29T09:05:11.926Z,2879
2022-07-29T09:06:11.584Z,2845
2022-07-29T09:07:09.702Z,2830
2022-07-29T09:08:12.517Z,2811
2022-07-29T09:09:11.721Z,2811
2022-07-29T09:10:09.660Z,2838
2022-07-29T09:11:11.945Z,2806
2022-07-29T09:12:09.689Z,2747
2022-07-29T09:13:12.211Z,2968
2022-07-29T09:14:12.648Z,2862
2022-07-29T09:16:09.903Z,2811
2022-07-29T09:17:09.760Z,2828
2022-07-29T09:18:20.341Z,2889
2022-07-29T09:19:12.042Z,2835
2022-07-29T09:20:10.394Z,2779
2022-07-29T09:21:11.782Z,2889
2022-07-29T09:22:12.626Z,2963
2022-07-29T09:23:11.894Z,2847
2022-07-29T09:24:09.661Z,2796
2022-07-29T09:25:09.643Z,2757
2022-07-29T09:26:12.104Z,2793
2022-07-29T09:27:09.628Z,2786
2022-07-29T09:28:10.423Z,2808
2022-07-29T09:29:09.657Z,2862
2022-07-29T09:30:15.749Z,2840
2022-07-29T09:32:09.634Z,2926
2022-07-29T09:33:09.644Z,2968
2022-07-29T09:34:09.613Z,2943
2022-07-29T09:35:09.643Z,2977
2022-07-29T09:36:11.980Z,2945
2022-07-29T09:37:09.608Z,2874
2022-07-29T09:38:09.676Z,2923
2022-07-29T09:39:09.649Z,2838
2022-07-29T09:40:15.052Z,2891
2022-07-29T09:41:11.827Z,2999
2022-07-29T09:42:09.617Z,2857
2022-07-29T09:43:17.073Z,2788
2022-07-29T09:44:12.555Z,2970
2022-07-29T09:45:09.636Z,2796
2022-07-29T09:46:12.222Z,2889
2022-07-29T09:47:12.725Z,2852
2022-07-29T09:48:09.580Z,2914
2022-07-29T09:49:09.644Z,2766
2022-07-29T09:50:11.763Z,2838
2022-07-29T09:51:12.078Z,2842
2022-07-29T09:52:14.978Z,2820
2022-07-29T09:53:09.597Z,2798
2022-07-29T09:54:09.626Z,2823
2022-07-29T09:55:09.723Z,2793
2022-07-29T09:56:09.583Z,2757
2022-07-29T09:57:09.647Z,2793
2022-07-29T09:58:09.576Z,2955
2022-07-29T09:59:09.566Z,2766
2022-07-29T10:00:09.563Z,2862
2022-07-29T10:01:09.668Z,2999
2022-07-29T10:02:09.573Z,2786
2022-07-29T10:03:09.624Z,2791
2022-07-29T10:04:09.565Z,2840
2022-07-29T10:05:09.574Z,2798
2022-07-29T10:06:09.574Z,2717
2022-07-29T10:07:09.550Z,2725
2022-07-29T10:08:09.562Z,2806
2022-07-29T10:09:09.568Z,2813
2022-07-29T10:10:09.552Z,2825
2022-07-29T10:11:09.552Z,2744
2022-07-29T10:12:09.550Z,2734
2022-07-29T10:13:13.543Z,2776
2022-07-29T10:14:09.556Z,2784
2022-07-29T10:15:09.545Z,2747
2022-07-29T10:16:09.673Z,2825
2022-07-29T10:17:09.546Z,2803
2022-07-29T10:18:09.565Z,2806
2022-07-29T10:19:09.553Z,2779
2022-07-29T10:20:12.527Z,2975
2022-07-29T10:21:09.554Z,2860
2022-07-29T10:22:09.551Z,2879
2022-07-29T10:23:09.553Z,2828
2022-07-29T10:24:14.708Z,2901
2022-07-29T10:25:09.539Z,2869
2022-07-29T10:26:09.552Z,2972
2022-07-29T10:27:09.536Z,2835
2022-07-29T10:28:12.160Z,2815
2022-07-29T10:29:09.528Z,2781
2022-07-29T10:30:09.528Z,2852
2022-07-29T10:31:09.695Z,2798
2022-07-29T10:32:09.532Z,2811
2022-07-29T10:33:09.525Z,2941
2022-07-29T10:34:09.522Z,2921
2022-07-29T10:35:09.526Z,2901
2022-07-29T10:36:09.530Z,2857
2022-07-29T10:37:09.522Z,2977
2022-07-29T10:38:12.428Z,2862
2022-07-29T10:39:09.517Z,2860
2022-07-29T10:40:09.523Z,2779
2022-07-29T10:41:09.543Z,2788
2022-07-29T10:42:09.532Z,2887
2022-07-29T10:43:09.530Z,3061
2022-07-29T10:44:12.364Z,2798
2022-07-29T10:45:09.554Z,2842
2022-07-29T10:46:09.585Z,2833
2022-07-29T10:47:09.526Z,2830
2022-07-29T10:48:09.523Z,2953
2022-07-29T10:49:09.612Z,2806
2022-07-29T10:50:12.818Z,2825
2022-07-29T10:51:09.532Z,2847
2022-07-29T10:52:09.527Z,2830
2022-07-29T10:53:09.544Z,2874
2022-07-29T10:54:09.537Z,2852
2022-07-29T10:55:09.509Z,2918
2022-07-29T10:56:13.402Z,3139
2022-07-29T10:57:09.534Z,2977
2022-07-29T10:58:09.525Z,3029
2022-07-29T10:59:09.508Z,2852
2022-07-29T11:00:09.541Z,2864
2022-07-29T11:01:09.508Z,2874
2022-07-29T11:02:35.431Z,2899
2022-07-29T11:03:10.807Z,2857
2022-07-29T11:04:09.515Z,2914
2022-07-29T11:05:09.507Z,2899
2022-07-29T11:06:09.512Z,2901
2022-07-29T11:07:09.499Z,2921
2022-07-29T11:08:11.545Z,2882
2022-07-29T11:09:09.509Z,2968
2022-07-29T11:10:09.508Z,2933
2022-07-29T11:11:09.504Z,2980
2022-07-29T11:12:09.490Z,2928
2022-07-29T11:13:09.507Z,2918
2022-07-29T11:14:10.460Z,2997
2022-07-29T11:15:09.498Z,2889
2022-07-29T11:16:09.487Z,2911
2022-07-29T11:17:09.492Z,2874
2022-07-29T11:18:14.763Z,2887
2022-07-29T11:19:09.485Z,2862
2022-07-29T11:20:09.483Z,2852
2022-07-29T11:21:09.488Z,2906
2022-07-29T11:22:09.488Z,2874
2022-07-29T11:23:09.511Z,2943
2022-07-29T11:24:09.482Z,2936
2022-07-29T11:25:09.515Z,2928
2022-07-29T11:26:09.491Z,2911
2022-07-29T11:27:09.486Z,2815
2022-07-29T11:28:09.492Z,2820
2022-07-29T11:29:09.472Z,2784
2022-07-29T11:30:09.497Z,2720
2022-07-29T11:31:09.496Z,2754
2022-07-29T11:32:09.472Z,2732
2022-07-29T11:33:09.481Z,2749
2022-07-29T11:34:09.472Z,2730
2022-07-29T11:35:16.669Z,2685
2022-07-29T11:36:09.471Z,2688
2022-07-29T11:37:09.484Z,2695
2022-07-29T11:38:09.461Z,2634
2022-07-29T11:39:09.469Z,2646
2022-07-29T11:40:09.467Z,2592
2022-07-29T11:41:09.456Z,2617
2022-07-29T11:42:13.684Z,2587
2022-07-29T11:43:09.456Z,2582
2022-07-29T11:44:09.463Z,2565
2022-07-29T11:45:44.152Z,2575
2022-07-29T11:46:09.456Z,2602
2022-07-29T11:47:09.479Z,2700
2022-07-29T11:48:31.500Z,2695
2022-07-29T11:49:09.851Z,2671
2022-07-29T11:50:10.271Z,2653
2022-07-29T11:51:09.448Z,2668
2022-07-29T11:52:10.903Z,2636
2022-07-29T11:53:09.472Z,2558
2022-07-29T11:54:09.444Z,2580
2022-07-29T11:55:09.893Z,2604
2022-07-29T11:56:09.441Z,2575
2022-07-29T11:57:09.459Z,2582
2022-07-29T11:58:09.445Z,2658
2022-07-29T11:59:09.450Z,2617
2022-07-29T12:00:12.627Z,2587
2022-07-29T12:01:09.436Z,2653
2022-07-29T12:02:36.302Z,2656
2022-07-29T12:03:09.467Z,2582
2022-07-29T12:04:09.511Z,2570
2022-07-29T12:05:10.763Z,2590
2022-07-29T12:06:09.430Z,2631
2022-07-29T12:07:11.050Z,2636
2022-07-29T12:08:12.482Z,2641
2022-07-29T12:09:14.407Z,2695
2022-07-29T12:10:11.584Z,2683
2022-07-29T12:11:09.433Z,2703
2022-07-29T12:12:09.428Z,2612
2022-07-29T12:13:09.440Z,2622
2022-07-29T12:14:09.424Z,2631
2022-07-29T12:15:09.422Z,2629
2022-07-29T12:16:09.461Z,2656
2022-07-29T12:17:09.423Z,2678
2022-07-29T12:18:09.429Z,2752
2022-07-29T12:19:09.422Z,2769
2022-07-29T12:20:09.516Z,2784
2022-07-29T12:21:09.417Z,2818
2022-07-29T12:22:09.417Z,2833
2022-07-29T12:23:09.427Z,2879
2022-07-29T12:24:09.686Z,2840
2022-07-29T12:25:32.116Z,2874
2022-07-29T12:26:10.755Z,2916
2022-07-29T12:27:09.408Z,2882
2022-07-29T12:28:09.415Z,2867
2022-07-29T12:29:14.756Z,2842
2022-07-29T12:30:09.420Z,2806
2022-07-29T12:31:09.460Z,2759
2022-07-29T12:32:14.891Z,2798
2022-07-29T12:33:09.413Z,2774
2022-07-29T12:34:09.399Z,2771
2022-07-29T12:35:09.415Z,2734
2022-07-29T12:36:17.112Z,2722
2022-07-29T12:37:09.404Z,2700
2022-07-29T12:38:09.406Z,2641
2022-07-29T12:39:09.396Z,2641
2022-07-29T12:40:09.427Z,2597
2022-07-29T12:41:09.391Z,2619
2022-07-29T12:42:13.620Z,2599
2022-07-29T12:43:09.394Z,2563
2022-07-29T12:44:09.386Z,2550
2022-07-29T12:45:09.397Z,2533
2022-07-29T12:46:09.442Z,2472
2022-07-29T12:47:09.398Z,2546
2022-07-29T12:48:09.385Z,2580
2022-07-29T12:49:09.412Z,2617
2022-07-29T12:50:09.378Z,2568
2022-07-29T12:51:09.385Z,2506
2022-07-29T12:52:09.386Z,2462
2022-07-29T12:53:09.385Z,2430
2022-07-29T12:54:09.979Z,2477
2022-07-29T12:55:09.381Z,2479
2022-07-29T12:56:26.540Z,2501
2022-07-29T12:57:09.372Z,2580
2022-07-29T12:58:09.373Z,2555
2022-07-29T12:59:09.378Z,2528
2022-07-29T13:00:09.384Z,2572
2022-07-29T13:01:16.859Z,2604
2022-07-29T13:02:09.447Z,2595
2022-07-29T13:03:09.382Z,2607
2022-07-29T13:04:09.388Z,2595
2022-07-29T13:05:09.420Z,2646
2022-07-29T13:06:09.364Z,2550
2022-07-29T13:07:10.627Z,2543
2022-07-29T13:08:09.370Z,2558
2022-07-29T13:09:09.361Z,2536
2022-07-29T13:10:09.361Z,2496
2022-07-29T13:11:09.356Z,2457
2022-07-29T13:12:09.364Z,2492
2022-07-29T13:13:09.370Z,2492
2022-07-29T13:14:09.351Z,2472
2022-07-29T13:15:09.363Z,2391
2022-07-29T13:16:09.365Z,2384
2022-07-29T13:17:09.357Z,2354
2022-07-29T13:18:09.365Z,2344
2022-07-29T13:19:09.346Z,2312
2022-07-29T13:20:09.358Z,2276
2022-07-29T13:21:09.354Z,2285
2022-07-29T13:22:09.345Z,2219
2022-07-29T13:23:09.349Z,2278
2022-07-29T13:24:09.344Z,2347
2022-07-29T13:25:09.356Z,2369
2022-07-29T13:26:09.338Z,2398
2022-07-29T13:27:09.341Z,2376
2022-07-29T13:28:09.340Z,2386
2022-07-29T13:29:09.344Z,2408
2022-07-29T13:30:09.360Z,2298
2022-07-29T13:31:09.403Z,2317
2022-07-29T13:32:09.334Z,2283
2022-07-29T13:33:09.345Z,2258
2022-07-29T13:34:09.332Z,2300
2022-07-29T13:35:09.344Z,2290
2022-07-29T13:36:09.495Z,2305
2022-07-29T13:37:09.327Z,2322
2022-07-29T13:38:09.322Z,2251
2022-07-29T13:39:09.333Z,2202
2022-07-29T13:40:09.329Z,2246
2022-07-29T13:41:09.336Z,2229
2022-07-29T13:42:11.117Z,2236
2022-07-29T13:43:09.324Z,2200
2022-07-29T13:44:09.325Z,2249
2022-07-29T13:45:09.323Z,2227